createdAt,value
2024-01-05T00:01:47.539Z,0
2024-01-05T00:06:53.918Z,0
2024-01-05T00:12:00.327Z,0
2024-01-05T00:17:06.750Z,0
2024-01-05T00:22:13.189Z,0
2024-01-05T00:27:19.563Z,0
2024-01-05T00:32:26.011Z,0
2024-01-05T00:37:32.397Z,0
2024-01-05T00:42:38.821Z,0
2024-01-05T00:47:45.242Z,0
2024-01-05T00:52:51.780Z,0
2024-01-05T00:57:57.372Z,0
2024-01-05T01:03:03.833Z,0
2024-01-05T01:08:10.296Z,0
2024-01-05T01:13:15.912Z,0
2024-01-05T01:18:21.379Z,0
2024-01-05T01:23:27.787Z,0
2024-01-05T01:28:34.203Z,0
2024-01-05T01:33:40.614Z,0
2024-01-05T01:38:47.027Z,0
2024-01-05T01:43:53.457Z,0
2024-01-05T01:48:59.857Z,0
2024-01-05T01:54:06.298Z,0
2024-01-05T01:59:12.687Z,0
2024-01-05T02:04:19.114Z,0
2024-01-05T02:09:25.519Z,0
2024-01-05T02:14:31.934Z,0
2024-01-05T02:19:38.340Z,0
2024-01-05T02:24:44.764Z,0
2024-01-05T02:29:51.178Z,0
2024-01-05T02:34:57.660Z,0
2024-01-05T02:40:04.002Z,0
2024-01-05T02:45:10.415Z,0
2024-01-05T02:50:16.928Z,0
2024-01-05T02:55:23.255Z,0
2024-01-05T03:00:29.666Z,0
2024-01-05T03:05:36.069Z,0
2024-01-05T03:10:42.499Z,0
2024-01-05T03:15:48.893Z,0
2024-01-05T03:20:55.325Z,0
2024-01-05T03:26:01.872Z,0
2024-01-05T03:31:07.452Z,0
2024-01-05T03:36:13.917Z,0
2024-01-05T03:41:20.382Z,0
2024-01-05T03:46:26.859Z,0
2024-01-05T03:51:33.317Z,0
2024-01-05T03:56:38.920Z,0
2024-01-05T04:01:44.499Z,0
2024-01-05T04:06:51.042Z,0
2024-01-05T04:11:56.458Z,0
2024-01-05T04:17:02.870Z,0
2024-01-05T04:22:09.280Z,0
2024-01-05T04:27:15.701Z,0
2024-01-05T04:32:22.099Z,0
2024-01-05T04:37:28.524Z,0
2024-01-05T04:42:34.931Z,0
2024-01-05T04:47:41.345Z,0
2024-01-05T04:52:47.851Z,0
2024-01-05T04:57:54.173Z,0
2024-01-05T05:03:00.583Z,0
2024-01-05T05:08:07.007Z,0
2024-01-05T05:13:13.418Z,0
2024-01-05T05:18:19.836Z,0
2024-01-05T05:23:26.246Z,0
2024-01-05T05:28:32.655Z,0
2024-01-05T05:33:39.079Z,0
2024-01-05T05:38:45.484Z,0
2024-01-05T05:43:51.895Z,0
2024-01-05T05:48:58.309Z,0
2024-01-05T05:54:04.720Z,0
2024-01-05T05:59:11.151Z,0
2024-01-05T06:04:17.564Z,0
2024-01-05T06:09:23.972Z,0
2024-01-05T06:14:30.386Z,0
2024-01-05T06:19:36.948Z,0
2024-01-05T06:24:42.523Z,0
2024-01-05T06:29:47.999Z,0
2024-01-05T06:34:54.405Z,0
2024-01-05T06:40:00.818Z,0
2024-01-05T06:45:07.231Z,0
2024-01-05T06:50:13.648Z,0
2024-01-05T06:55:20.050Z,0
2024-01-05T07:00:26.520Z,0
2024-01-05T07:05:32.734Z,0
2024-01-05T07:10:39.041Z,0
2024-01-05T07:15:45.347Z,0
2024-01-05T07:20:51.686Z,0
2024-01-05T07:25:57.987Z,0
2024-01-05T07:31:04.273Z,0
2024-01-05T07:36:10.595Z,5
2024-01-05T07:41:16.902Z,5
2024-01-05T07:46:23.206Z,5
2024-01-05T07:51:29.488Z,5
2024-01-05T07:56:35.869Z,11
2024-01-05T08:01:42.293Z,11
2024-01-05T08:06:48.412Z,16
2024-01-05T08:11:54.719Z,22
2024-01-05T08:17:01.170Z,22
2024-01-05T08:22:07.470Z,22
2024-01-05T08:27:13.628Z,28
2024-01-05T08:32:19.937Z,22
2024-01-05T08:37:26.440Z,22
2024-01-05T08:42:31.918Z,28
2024-01-05T08:47:38.382Z,28
2024-01-05T08:52:44.734Z,22
2024-01-05T08:57:50.229Z,28
2024-01-05T09:02:56.480Z,28
2024-01-05T09:08:02.774Z,33
2024-01-05T09:13:09.177Z,45
2024-01-05T09:18:15.438Z,33
2024-01-05T09:23:21.727Z,22
2024-01-05T09:28:28.040Z,16
2024-01-05T09:33:34.374Z,22
2024-01-05T09:38:40.611Z,16
2024-01-05T09:43:46.899Z,22
2024-01-05T09:48:53.225Z,22
2024-01-05T09:53:59.573Z,11
2024-01-05T09:59:05.898Z,11
2024-01-05T10:04:12.144Z,11
2024-01-05T10:09:18.467Z,22
2024-01-05T10:14:24.756Z,39
2024-01-05T10:19:31.090Z,33
2024-01-05T10:24:37.379Z,11
2024-01-05T10:29:43.912Z,22
2024-01-05T10:34:50.067Z,39
2024-01-05T10:39:56.361Z,56
2024-01-05T10:45:02.589Z,45
2024-01-05T10:50:09.001Z,16
2024-01-05T10:55:15.211Z,33
2024-01-05T11:00:21.501Z,45
2024-01-05T11:05:28.009Z,50
2024-01-05T11:10:33.380Z,45
2024-01-05T11:15:39.669Z,50
2024-01-05T11:20:46.041Z,45
2024-01-05T11:25:52.298Z,45
2024-01-05T11:30:58.625Z,33
2024-01-05T11:36:04.938Z,45
2024-01-05T11:41:11.256Z,50
2024-01-05T11:46:17.516Z,45
2024-01-05T11:51:23.851Z,33
2024-01-05T11:56:30.210Z,33
2024-01-05T12:01:36.512Z,45
2024-01-05T12:06:42.842Z,61
2024-01-05T12:11:49.112Z,50
2024-01-05T12:16:55.383Z,45
2024-01-05T12:22:01.710Z,45
2024-01-05T12:27:07.967Z,33
2024-01-05T12:32:14.279Z,28
2024-01-05T12:37:20.664Z,28
2024-01-05T12:42:27.176Z,22
2024-01-05T12:47:33.273Z,22
2024-01-05T12:52:39.599Z,16
2024-01-05T12:57:45.811Z,33
2024-01-05T13:02:52.112Z,22
2024-01-05T13:07:58.406Z,28
2024-01-05T13:13:04.720Z,11
2024-01-05T13:18:11.163Z,5
2024-01-05T13:23:16.584Z,5
2024-01-05T13:28:22.889Z,5
2024-01-05T13:33:29.194Z,11
2024-01-05T13:38:35.501Z,16
2024-01-05T13:43:41.990Z,11
2024-01-05T13:48:48.117Z,5
2024-01-05T13:53:54.526Z,0
2024-01-05T13:59:00.735Z,5
2024-01-05T14:04:07.050Z,5
2024-01-05T14:09:13.387Z,5
2024-01-05T14:14:19.649Z,5
2024-01-05T14:19:25.952Z,5
2024-01-05T14:24:32.256Z,5
2024-01-05T14:29:38.564Z,11
2024-01-05T14:34:44.868Z,5
2024-01-05T14:39:51.221Z,5
2024-01-05T14:44:57.477Z,5
2024-01-05T14:50:03.802Z,5
2024-01-05T14:55:10.094Z,5
2024-01-05T15:00:16.419Z,0
2024-01-05T15:05:22.717Z,0
2024-01-05T15:10:29.028Z,0
2024-01-05T15:15:35.337Z,0
2024-01-05T15:20:41.646Z,0
2024-01-05T15:25:47.936Z,0
2024-01-05T15:30:54.378Z,0
2024-01-05T15:35:59.930Z,0
2024-01-05T15:41:05.328Z,0
2024-01-05T15:46:11.664Z,0
2024-01-05T15:51:18.116Z,0
2024-01-05T15:56:24.350Z,0
2024-01-05T16:01:30.775Z,0
2024-01-05T16:06:37.216Z,0
2024-01-05T16:11:43.601Z,0
2024-01-05T16:16:50.043Z,0
2024-01-05T16:21:56.420Z,0
2024-01-05T16:27:02.932Z,0
2024-01-05T16:32:09.232Z,0
2024-01-05T16:37:15.649Z,0
2024-01-05T16:42:22.120Z,0
2024-01-05T16:47:28.483Z,0
2024-01-05T16:52:34.886Z,0
2024-01-05T16:57:41.310Z,0
2024-01-05T17:02:47.845Z,0
2024-01-05T17:07:54.138Z,0
2024-01-05T17:13:00.584Z,0
2024-01-05T17:18:06.984Z,0
2024-01-05T17:23:13.392Z,0
2024-01-05T17:28:19.807Z,0
2024-01-05T17:33:26.214Z,0
2024-01-05T17:38:32.633Z,0
2024-01-05T17:43:39.031Z,0
2024-01-05T17:48:45.592Z,0
2024-01-05T17:53:51.066Z,0
2024-01-05T17:58:57.483Z,0
2024-01-05T18:04:03.932Z,0
2024-01-05T18:09:10.300Z,0
2024-01-05T18:14:16.831Z,0
2024-01-05T18:19:23.172Z,0
2024-01-05T18:24:29.645Z,0
2024-01-05T18:29:36.353Z,0
2024-01-05T18:34:42.679Z,0
2024-01-05T18:39:49.134Z,0
2024-01-05T18:44:55.468Z,0
2024-01-05T18:50:01.841Z,0
2024-01-05T18:55:08.123Z,0
2024-01-05T19:00:14.733Z,0
2024-01-05T19:05:21.094Z,0
2024-01-05T19:10:27.582Z,0
2024-01-05T19:15:33.731Z,0
2024-01-05T19:20:40.376Z,0
2024-01-05T19:25:46.608Z,0
2024-01-05T19:30:53.271Z,0
2024-01-05T19:35:59.641Z,0
2024-01-05T19:41:05.756Z,0
2024-01-05T19:46:12.350Z,0
2024-01-05T19:51:18.598Z,0
2024-01-05T19:56:25.130Z,0
2024-01-05T20:01:31.847Z,0
2024-01-05T20:06:37.173Z,0
2024-01-05T20:11:43.499Z,0
2024-01-05T20:16:50.166Z,0
2024-01-05T20:21:56.540Z,0
2024-01-05T20:27:03.117Z,0
2024-01-05T20:32:09.439Z,0
2024-01-05T20:37:15.728Z,0
2024-01-05T20:42:22.181Z,0
2024-01-05T20:47:28.346Z,0
2024-01-05T20:52:34.763Z,0
2024-01-05T20:57:41.168Z,0
2024-01-05T21:02:47.579Z,0
2024-01-05T21:07:53.999Z,0
2024-01-05T21:13:00.576Z,0
2024-01-05T21:18:07.000Z,0
2024-01-05T21:23:13.515Z,0
2024-01-05T21:28:19.643Z,0
2024-01-05T21:33:26.070Z,0
2024-01-05T21:38:32.810Z,0
2024-01-05T21:43:39.216Z,0
2024-01-05T21:48:45.364Z,0
2024-01-05T21:53:51.721Z,0
2024-01-05T21:58:58.475Z,0
2024-01-05T22:04:04.911Z,0
2024-01-05T22:09:11.163Z,0
2024-01-05T22:14:17.520Z,0
2024-01-05T22:19:23.097Z,0
2024-01-05T22:24:28.580Z,0
2024-01-05T22:29:34.992Z,0
2024-01-05T22:34:41.399Z,0
2024-01-05T22:39:47.815Z,0
2024-01-05T22:44:54.222Z,0
2024-01-05T22:50:00.628Z,0
2024-01-05T22:55:07.043Z,0
2024-01-05T23:00:13.467Z,0
2024-01-05T23:05:19.878Z,0
2024-01-05T23:10:26.290Z,0
2024-01-05T23:15:32.707Z,0
2024-01-05T23:20:39.123Z,0
2024-01-05T23:25:45.522Z,0
2024-01-05T23:30:51.944Z,0
2024-01-05T23:35:58.360Z,0
2024-01-05T23:41:04.835Z,0
2024-01-05T23:46:11.198Z,0
2024-01-05T23:51:17.595Z,0
2024-01-05T23:56:24.019Z,0
